Time;durP1;ratioP1;P1;durP2;ratioP2;P2;SDS_P1;SDS_P2;PMS_P1;PMS_P2;Temp;Humidity;BMP_temperature;BMP_pressure;BME280_temperature;BME280_humidity;BME280_pressure;Samples;Min_cycle;Max_cycle;Signal;HPM_P1;HPM_P2
2024/01/14 00:00:06;;;;;;;59.03;26.10;;;2.00;99.90;;;;;;5054349;28;20228;-73
2024/01/14 00:02:32;;;;;;;65.47;29.63;;;1.90;99.90;;;;;;5077818;28;20547;-72
2024/01/14 00:04:58;;;;;;;55.77;27.33;;;1.90;99.90;;;;;;5092338;28;20252;-72
2024/01/14 00:07:23;;;;;;;59.90;30.00;;;1.80;99.90;;;;;;5073953;28;20197;-72
2024/01/14 00:09:49;;;;;;;58.57;28.70;;;2.00;99.90;;;;;;5092701;28;20660;-72
2024/01/14 00:12:15;;;;;;;68.33;28.90;;;1.90;99.90;;;;;;5094239;28;20230;-73
2024/01/14 00:14:41;;;;;;;56.50;27.63;;;2.10;99.90;;;;;;5092304;28;20172;-73
2024/01/14 00:17:07;;;;;;;57.10;29.47;;;2.00;99.90;;;;;;5067656;28;20171;-73
2024/01/14 00:19:33;;;;;;;62.30;27.30;;;1.90;99.90;;;;;;5073075;28;20182;-73
2024/01/14 00:21:58;;;;;;;63.10;29.30;;;2.00;99.90;;;;;;5072709;28;20261;-72
2024/01/14 00:24:24;;;;;;;57.57;28.07;;;2.10;99.90;;;;;;5090232;28;20256;-72
2024/01/14 00:26:50;;;;;;;62.90;29.77;;;2.00;99.90;;;;;;5092373;28;20213;-72
2024/01/14 00:29:15;;;;;;;56.27;26.70;;;2.00;99.90;;;;;;5092200;28;20629;-73
2024/01/14 00:31:41;;;;;;;63.00;28.67;;;2.00;99.90;;;;;;5077228;28;20364;-73
2024/01/14 00:34:06;;;;;;;70.13;29.83;;;1.90;99.90;;;;;;5072363;28;20170;-73
2024/01/14 00:36:40;;;;;;;56.07;29.37;;;1.90;99.90;;;;;;5071381;28;20186;-72
2024/01/14 00:39:06;;;;;;;57.83;29.20;;;2.00;99.90;;;;;;5071425;28;20166;-73
2024/01/14 00:41:32;;;;;;;62.03;30.00;;;1.90;99.90;;;;;;5071470;28;20175;-72
2024/01/14 00:43:58;;;;;;;55.47;27.93;;;2.00;99.90;;;;;;5071032;28;20617;-73
2024/01/14 00:46:24;;;;;;;63.33;28.53;;;2.00;99.90;;;;;;5084890;28;20281;-73
2024/01/14 00:48:49;;;;;;;57.50;29.40;;;1.90;99.90;;;;;;5091299;28;20264;-72
2024/01/14 00:51:15;;;;;;;61.27;29.27;;;1.90;99.90;;;;;;5091429;28;20198;-73
2024/01/14 00:53:41;;;;;;;60.17;28.53;;;1.90;99.90;;;;;;5091240;28;20716;-73
2024/01/14 00:56:06;;;;;;;52.07;24.57;;;2.00;99.90;;;;;;5091639;28;20209;-72
2024/01/14 00:58:32;;;;;;;51.20;25.13;;;2.00;99.90;;;;;;5091191;28;20536;-73
2024/01/14 01:00:57;;;;;;;61.03;28.17;;;1.90;99.90;;;;;;5080727;28;20189;-73
2024/01/14 01:03:23;;;;;;;61.73;29.23;;;1.80;99.90;;;;;;5054936;28;20174;-73
2024/01/14 01:05:48;;;;;;;53.50;27.37;;;2.00;99.90;;;;;;5071103;28;20198;-73
2024/01/14 01:08:14;;;;;;;63.23;29.33;;;2.00;99.90;;;;;;5082084;28;20637;-72
2024/01/14 01:10:40;;;;;;;64.33;31.37;;;1.90;99.90;;;;;;5093285;28;20274;-72
2024/01/14 01:13:05;;;;;;;64.27;29.00;;;1.90;99.90;;;;;;5091516;28;20165;-73
2024/01/14 01:15:31;;;;;;;57.83;30.80;;;2.10;99.90;;;;;;5091335;28;20544;-73
2024/01/14 01:17:56;;;;;;;59.90;28.17;;;1.90;99.90;;;;;;5090781;28;20166;-72
2024/01/14 01:20:22;;;;;;;61.87;29.83;;;1.90;99.90;;;;;;5092403;28;20169;-73
2024/01/14 01:22:48;;;;;;;59.27;28.60;;;2.00;99.90;;;;;;5089881;28;20277;-72
2024/01/14 01:25:14;;;;;;;60.87;27.10;;;2.00;99.90;;;;;;5092276;28;20207;-73
2024/01/14 01:27:40;;;;;;;60.00;30.07;;;2.00;99.90;;;;;;5088229;28;20186;-73
2024/01/14 01:30:06;;;;;;;58.80;29.77;;;2.00;99.90;;;;;;5071109;28;20170;-72
2024/01/14 01:32:32;;;;;;;55.00;26.43;;;2.00;99.90;;;;;;5070909;28;20170;-72
2024/01/14 01:34:57;;;;;;;60.87;28.90;;;2.00;99.90;;;;;;5070983;28;20177;-72
2024/01/14 01:37:23;;;;;;;59.10;27.40;;;1.90;99.90;;;;;;5071042;28;20170;-72
2024/01/14 01:39:49;;;;;;;63.20;29.83;;;2.00;99.90;;;;;;5070791;28;20261;-72
2024/01/14 01:42:15;;;;;;;55.07;27.00;;;2.00;99.90;;;;;;5071307;28;20178;-73
2024/01/14 01:44:40;;;;;;;59.73;29.03;;;1.90;99.90;;;;;;5090907;28;20543;-72
2024/01/14 01:47:07;;;;;;;49.17;25.10;;;2.00;99.90;;;;;;5090997;28;20197;-72
2024/01/14 01:49:33;;;;;;;40.47;17.87;;;1.80;99.90;;;;;;5090488;28;20189;-73
2024/01/14 01:52:00;;;;;;;56.40;26.23;;;1.80;99.90;;;;;;5091067;28;20241;-73
2024/01/14 01:54:28;;;;;;;61.60;28.47;;;1.80;99.90;;;;;;5091119;28;20197;-73
2024/01/14 01:56:55;;;;;;;42.00;20.43;;;1.80;99.90;;;;;;5090755;28;20193;-72
2024/01/14 01:59:21;;;;;;;49.50;26.77;;;1.80;99.90;;;;;;5070837;28;20198;-73
2024/01/14 02:01:48;;;;;;;57.00;27.50;;;1.80;99.90;;;;;;5070568;28;20181;-72
2024/01/14 02:04:15;;;;;;;53.13;26.57;;;1.70;99.90;;;;;;5070872;28;20178;-72
2024/01/14 02:06:41;;;;;;;50.97;24.83;;;1.80;99.90;;;;;;5070380;28;20190;-72
2024/01/14 02:09:08;;;;;;;46.97;23.40;;;1.70;99.90;;;;;;5070781;28;20174;-73
2024/01/14 02:11:37;;;;;;;44.87;24.60;;;1.70;99.90;;;;;;5074468;28;20666;-73
2024/01/14 02:14:03;;;;;;;52.03;27.00;;;1.70;99.90;;;;;;5074960;28;20201;-73
2024/01/14 02:16:29;;;;;;;51.73;25.27;;;1.60;99.90;;;;;;5075526;28;20190;-73
2024/01/14 02:18:54;;;;;;;49.57;25.27;;;1.70;99.90;;;;;;5074197;28;20182;-73
2024/01/14 02:21:22;;;;;;;57.33;27.67;;;1.70;99.90;;;;;;5074660;28;20182;-72
2024/01/14 02:23:58;;;;;;;47.17;23.90;;;1.70;99.90;;;;;;5074653;28;20284;-73
2024/01/14 02:26:24;;;;;;;54.77;27.27;;;1.70;99.90;;;;;;5088863;28;20201;-73
2024/01/14 02:28:49;;;;;;;47.70;23.87;;;1.70;99.90;;;;;;5097280;28;20177;-73
2024/01/14 02:31:15;;;;;;;56.27;26.53;;;1.80;99.90;;;;;;5098892;28;20204;-73
2024/01/14 02:33:41;;;;;;;47.70;24.87;;;1.80;99.90;;;;;;5098495;28;20166;-73
2024/01/14 02:36:06;;;;;;;56.83;25.77;;;1.80;99.90;;;;;;5097829;28;20193;-72
2024/01/14 02:38:32;;;;;;;54.60;25.23;;;1.80;99.90;;;;;;5095833;28;20189;-72
2024/01/14 02:40:58;;;;;;;41.03;20.77;;;1.90;99.90;;;;;;5085215;28;20551;-73
2024/01/14 02:43:23;;;;;;;38.60;20.20;;;1.80;99.90;;;;;;5074999;28;20185;-74
2024/01/14 02:45:49;;;;;;;40.50;21.77;;;1.70;99.90;;;;;;5076747;28;20210;-72
2024/01/14 02:48:14;;;;;;;48.27;24.77;;;1.70;99.90;;;;;;5075253;28;20443;-73
2024/01/14 02:50:40;;;;;;;43.50;23.87;;;1.70;99.90;;;;;;5074817;28;20288;-73
2024/01/14 02:53:05;;;;;;;47.40;26.07;;;1.70;99.90;;;;;;5075140;28;20166;-72
2024/01/14 02:55:31;;;;;;;43.70;22.80;;;1.80;99.90;;;;;;5074562;28;20243;-75
2024/01/14 02:57:57;;;;;;;44.73;24.57;;;1.70;99.90;;;;;;5082906;28;20181;-71
2024/01/14 03:00:23;;;;;;;52.30;25.83;;;1.70;99.90;;;;;;5095046;28;20520;-72
2024/01/14 03:02:49;;;;;;;33.37;19.33;;;1.70;99.90;;;;;;5094908;28;20215;-73
2024/01/14 03:05:14;;;;;;;34.03;19.70;;;1.70;99.90;;;;;;5079203;28;20218;-73
2024/01/14 03:07:40;;;;;;;44.07;22.57;;;1.70;99.90;;;;;;5090267;28;20189;-73
2024/01/14 03:10:06;;;;;;;39.50;20.77;;;1.70;99.90;;;;;;5095677;28;20217;-72
2024/01/14 03:12:31;;;;;;;43.83;21.63;;;1.70;99.90;;;;;;5095768;28;20170;-73
2024/01/14 03:14:57;;;;;;;45.10;22.23;;;1.70;97.70;;;;;;5096089;28;20165;-73
2024/01/14 03:17:22;;;;;;;42.63;24.10;;;1.60;93.40;;;;;;5095913;28;20180;-72
2024/01/14 03:19:48;;;;;;;39.70;19.63;;;1.60;91.30;;;;;;5094277;28;20588;-73
2024/01/14 03:22:14;;;;;;;43.10;22.43;;;1.70;94.20;;;;;;5081072;28;20262;-73
2024/01/14 03:24:40;;;;;;;39.00;21.20;;;1.70;92.90;;;;;;5073705;28;20178;-72
2024/01/14 03:27:05;;;;;;;43.10;21.97;;;1.60;84.70;;;;;;5073961;28;20575;-72
2024/01/14 03:29:31;;;;;;;46.27;22.43;;;1.70;83.10;;;;;;5073159;28;20178;-72
2024/01/14 03:31:56;;;;;;;44.23;22.03;;;1.60;79.70;;;;;;5072790;28;20243;-72
2024/01/14 03:34:23;;;;;;;32.37;19.23;;;1.80;77.40;;;;;;5072899;28;20181;-73
2024/01/14 03:36:48;;;;;;;45.57;20.50;;;1.60;67.50;;;;;;5072678;28;20190;-72
2024/01/14 03:39:14;;;;;;;39.23;21.87;;;1.70;63.60;;;;;;5072728;28;20204;-73
2024/01/14 03:41:40;;;;;;;44.20;22.97;;;1.70;61.50;;;;;;5090333;28;20174;-72
2024/01/14 03:44:05;;;;;;;45.20;23.77;;;1.80;62.90;;;;;;5092928;28;20232;-73
2024/01/14 03:46:31;;;;;;;46.03;23.47;;;1.80;62.20;;;;;;5093303;28;20193;-72
2024/01/14 03:48:57;;;;;;;48.70;23.50;;;1.60;58.20;;;;;;5093197;28;20180;-73
2024/01/14 03:51:22;;;;;;;33.53;17.47;;;1.70;63.80;;;;;;5093818;28;20350;-73
2024/01/14 03:53:48;;;;;;;46.03;23.27;;;1.70;67.80;;;;;;5086203;28;20182;-73
2024/01/14 03:56:13;;;;;;;27.90;14.23;;;1.60;85.70;;;;;;5074306;28;20212;-73
2024/01/14 03:58:39;;;;;;;42.40;19.77;;;1.60;99.90;;;;;;5082996;28;20185;-73
2024/01/14 04:01:05;;;;;;;37.47;20.63;;;1.50;99.90;;;;;;5092629;28;20197;-73
2024/01/14 04:03:30;;;;;;;37.80;20.93;;;1.50;99.90;;;;;;5092737;28;20178;-73
2024/01/14 04:05:56;;;;;;;29.77;15.47;;;1.60;99.90;;;;;;5092533;28;20731;-72
2024/01/14 04:08:21;;;;;;;46.60;21.30;;;1.40;99.90;;;;;;5092352;28;20258;-72
2024/01/14 04:10:48;;;;;;;39.47;21.50;;;1.60;99.90;;;;;;5092386;28;20200;-73
2024/01/14 04:13:14;;;;;;;43.97;21.90;;;1.40;99.90;;;;;;5082874;28;20257;-73
2024/01/14 04:15:39;;;;;;;33.30;18.90;;;1.40;99.90;;;;;;5072143;28;20274;-72
2024/01/14 04:18:05;;;;;;;43.00;21.20;;;1.50;99.90;;;;;;5071876;28;20201;-73
2024/01/14 04:20:30;;;;;;;38.50;21.33;;;1.50;99.90;;;;;;5072216;28;20604;-73
2024/01/14 04:22:56;;;;;;;44.57;22.10;;;1.60;99.90;;;;;;5092100;28;20182;-73
2024/01/14 04:25:22;;;;;;;44.97;20.97;;;1.50;99.90;;;;;;5091994;28;20229;-73
2024/01/14 04:27:47;;;;;;;36.60;18.03;;;1.60;99.90;;;;;;5092052;28;20263;-72
2024/01/14 04:30:13;;;;;;;41.20;19.70;;;1.50;99.90;;;;;;5092017;28;20729;-73
2024/01/14 04:32:39;;;;;;;43.13;23.00;;;1.60;99.90;;;;;;5091205;28;20177;-72
2024/01/14 04:35:04;;;;;;;34.43;20.13;;;1.40;99.90;;;;;;5091591;28;20530;-72
2024/01/14 04:37:31;;;;;;;36.50;19.90;;;1.50;99.90;;;;;;5073236;28;20182;-72
2024/01/14 04:39:57;;;;;;;35.03;18.43;;;1.60;99.90;;;;;;5071365;28;20571;-72
2024/01/14 04:42:23;;;;;;;30.57;16.97;;;1.40;99.90;;;;;;5071575;28;20212;-73
2024/01/14 04:44:49;;;;;;;38.53;18.17;;;1.60;99.90;;;;;;5071075;28;20182;-72
2024/01/14 04:47:14;;;;;;;33.90;19.23;;;1.50;99.90;;;;;;5071599;28;20170;-72
2024/01/14 04:49:40;;;;;;;37.83;20.10;;;1.60;99.90;;;;;;5081879;28;20208;-72
2024/01/14 04:52:06;;;;;;;33.97;18.50;;;1.50;99.90;;;;;;5073487;28;20672;-72
2024/01/14 04:54:31;;;;;;;41.53;18.60;;;1.60;99.90;;;;;;5091767;28;20170;-72
2024/01/14 04:56:57;;;;;;;40.87;20.60;;;1.60;99.90;;;;;;5091480;28;20201;-72
2024/01/14 04:59:23;;;;;;;40.97;20.97;;;1.50;99.90;;;;;;5089086;28;20200;-72
2024/01/14 05:01:49;;;;;;;37.33;18.10;;;1.50;99.90;;;;;;5091963;28;20189;-72
2024/01/14 05:04:15;;;;;;;36.37;18.90;;;1.60;99.90;;;;;;5091539;28;20177;-72
2024/01/14 05:06:40;;;;;;;36.70;17.27;;;1.50;99.90;;;;;;5091383;28;20189;-72
2024/01/14 05:09:06;;;;;;;33.87;16.00;;;1.50;99.90;;;;;;5091421;28;20177;-71
2024/01/14 05:11:31;;;;;;;21.07;12.63;;;1.60;99.90;;;;;;5091514;28;20250;-72
2024/01/14 05:13:57;;;;;;;34.97;17.57;;;1.60;99.90;;;;;;5089792;28;20184;-72
2024/01/14 05:16:23;;;;;;;31.83;17.60;;;1.50;99.90;;;;;;5093540;28;20726;-72
2024/01/14 05:18:48;;;;;;;34.10;16.83;;;1.50;99.90;;;;;;5092122;28;20591;-72
2024/01/14 05:21:17;;;;;;;28.03;16.20;;;1.60;99.90;;;;;;5091678;28;20180;-72
2024/01/14 05:23:46;;;;;;;24.77;14.27;;;1.50;99.90;;;;;;5091416;28;20177;-72
2024/01/14 05:26:12;;;;;;;30.93;17.17;;;1.60;99.90;;;;;;5093231;28;20228;-72
2024/01/14 05:28:37;;;;;;;31.17;16.33;;;1.60;99.90;;;;;;5093697;28;20174;-72
2024/01/14 05:31:03;;;;;;;30.80;16.13;;;1.60;99.90;;;;;;5093448;28;20310;-72
2024/01/14 05:33:29;;;;;;;32.77;17.83;;;1.70;99.90;;;;;;5091293;28;20192;-72
2024/01/14 05:35:54;;;;;;;26.70;15.90;;;1.50;99.90;;;;;;5091598;28;20193;-73
2024/01/14 05:38:20;;;;;;;32.90;16.03;;;1.60;99.90;;;;;;5092384;28;20248;-72
2024/01/14 05:40:45;;;;;;;29.77;15.40;;;1.50;99.90;;;;;;5091776;28;20180;-72
2024/01/14 05:43:11;;;;;;;34.90;19.40;;;1.60;99.90;;;;;;5092233;28;20406;-72
2024/01/14 05:45:37;;;;;;;32.60;17.47;;;1.60;99.90;;;;;;5084605;28;20208;-72
2024/01/14 05:48:03;;;;;;;30.37;17.77;;;1.60;99.90;;;;;;5078785;28;20695;-72
2024/01/14 05:50:28;;;;;;;27.47;15.97;;;1.50;99.90;;;;;;5077901;28;20174;-73
2024/01/14 05:52:54;;;;;;;33.00;16.90;;;1.70;97.30;;;;;;5076342;28;20261;-72
2024/01/14 05:55:19;;;;;;;21.10;12.63;;;1.50;95.70;;;;;;5076378;28;20194;-73
2024/01/14 05:57:45;;;;;;;36.47;18.23;;;1.50;89.50;;;;;;5075752;28;20174;-72
2024/01/14 06:00:11;;;;;;;27.60;16.87;;;1.60;92.90;;;;;;5068439;28;20208;-72
2024/01/14 06:02:36;;;;;;;31.37;17.67;;;1.50;88.40;;;;;;5096300;28;20248;-72
2024/01/14 06:05:02;;;;;;;30.60;16.97;;;1.60;70.60;;;;;;5096478;28;20243;-72
2024/01/14 06:07:28;;;;;;;30.23;16.43;;;1.40;55.00;;;;;;5099076;28;20215;-73
2024/01/14 06:09:53;;;;;;;33.03;16.87;;;1.50;48.20;;;;;;5098138;28;20257;-72
2024/01/14 06:12:19;;;;;;;27.43;14.83;;;1.40;28.60;;;;;;5095307;28;21906;-72
2024/01/14 06:14:44;;;;;;;29.70;16.63;;;1.30;32.90;;;;;;5076308;28;20174;-71
2024/01/14 06:17:10;;;;;;;30.13;14.33;;;1.30;68.00;;;;;;5075328;28;20185;-73
2024/01/14 06:19:36;;;;;;;27.53;16.30;;;1.30;94.80;;;;;;5090002;28;20185;-73
2024/01/14 06:22:01;;;;;;;26.03;15.47;;;1.30;99.90;;;;;;5095748;28;20165;-72
2024/01/14 06:24:27;;;;;;;29.43;16.57;;;1.50;98.80;;;;;;5096457;28;20173;-72
2024/01/14 06:26:53;;;;;;;26.03;16.03;;;1.40;91.90;;;;;;5096605;28;20557;-72
2024/01/14 06:29:18;;;;;;;32.77;15.57;;;1.40;73.90;;;;;;5097981;28;20186;-73
2024/01/14 06:31:45;;;;;;;31.63;15.63;;;1.40;54.00;;;;;;5097548;28;20201;-72
2024/01/14 06:34:11;;;;;;;25.30;13.90;;;1.60;44.20;;;;;;5095637;28;20177;-72
2024/01/14 06:36:37;;;;;;;29.80;15.27;;;1.50;32.10;;;;;;5096992;28;20228;-71
2024/01/14 06:39:02;;;;;;;22.63;13.27;;;1.50;18.00;;;;;;5098878;28;20529;-72
2024/01/14 06:41:28;;;;;;;30.87;15.87;;;1.50;6.20;;;;;;5092836;28;20185;-71
2024/01/14 06:43:54;;;;;;;30.97;16.10;;;1.60;1.00;;;;;;5080103;28;20661;-72
2024/01/14 06:46:19;;;;;;;30.30;16.23;;;1.60;1.00;;;;;;5095522;28;20198;-72
2024/01/14 06:48:45;;;;;;;22.57;13.50;;;1.40;1.00;;;;;;5095955;28;20551;-73
2024/01/14 06:51:10;;;;;;;29.00;15.80;;;1.50;1.00;;;;;;5089837;28;20198;-72
2024/01/14 06:53:36;;;;;;;26.70;16.57;;;1.40;1.00;;;;;;5075322;28;20174;-72
2024/01/14 06:56:02;;;;;;;28.07;15.87;;;1.50;1.00;;;;;;5074186;28;20190;-73
2024/01/14 06:58:28;;;;;;;30.03;16.73;;;1.50;1.00;;;;;;5075677;28;20166;-72
2024/01/14 07:00:54;;;;;;;26.57;14.67;;;1.50;1.00;;;;;;5076309;28;20177;-72
2024/01/14 07:03:20;;;;;;;27.23;15.40;;;1.60;1.00;;;;;;5075769;28;20178;-72
2024/01/14 07:05:46;;;;;;;29.90;16.30;;;1.40;1.00;;;;;;5082040;28;20545;-71
2024/01/14 07:08:11;;;;;;;36.37;16.47;;;1.50;1.00;;;;;;5092768;28;20657;-72
2024/01/14 07:10:37;;;;;;;27.50;15.70;;;1.60;1.00;;;;;;5076423;28;20687;-72
2024/01/14 07:13:03;;;;;;;23.33;14.33;;;1.40;1.00;;;;;;5075767;28;20173;-72
2024/01/14 07:15:28;;;;;;;26.80;15.63;;;1.60;1.00;;;;;;5075578;28;20222;-73
2024/01/14 07:17:54;;;;;;;20.67;12.67;;;1.50;1.00;;;;;;5075207;28;20178;-72
2024/01/14 07:20:20;;;;;;;22.83;14.53;;;1.50;1.00;;;;;;5075718;28;20170;-71
2024/01/14 07:22:45;;;;;;;26.17;15.40;;;1.50;1.00;;;;;;5076043;28;20274;-71
2024/01/14 07:25:11;;;;;;;16.80;11.80;;;1.40;1.00;;;;;;5094818;28;20212;-71
2024/01/14 07:27:37;;;;;;;25.53;13.87;;;1.60;1.00;;;;;;5095442;28;20204;-73
2024/01/14 07:30:06;;;;;;;20.70;12.83;;;1.40;1.00;;;;;;5094632;28;20209;-72
2024/01/14 07:32:31;;;;;;;23.93;14.30;;;1.40;1.00;;;;;;5076537;28;20587;-72
2024/01/14 07:34:58;;;;;;;14.73;10.37;;;1.50;1.00;;;;;;5090417;28;20176;-72
2024/01/14 07:37:24;;;;;;;21.17;13.17;;;1.50;1.00;;;;;;5092966;28;20682;-72
2024/01/14 07:39:50;;;;;;;20.50;13.20;;;1.50;1.00;;;;;;5092703;28;20198;-70
2024/01/14 07:42:16;;;;;;;23.63;14.67;;;1.50;1.00;;;;;;5093087;28;20189;-71
2024/01/14 07:44:42;;;;;;;24.53;13.87;;;1.50;1.00;;;;;;5093238;28;20326;-71
2024/01/14 07:47:08;;;;;;;22.60;14.40;;;1.60;1.00;;;;;;5092784;28;20620;-72
2024/01/14 07:49:33;;;;;;;19.57;12.90;;;1.40;1.00;;;;;;5086905;28;20269;-71
2024/01/14 07:51:59;;;;;;;24.23;14.23;;;1.50;1.00;;;;;;5072437;28;20679;-71
2024/01/14 07:54:25;;;;;;;21.37;14.03;;;1.40;1.00;;;;;;5072525;28;20185;-71
2024/01/14 07:56:51;;;;;;;13.37;10.57;;;1.40;1.00;;;;;;5072627;28;20269;-71
2024/01/14 07:59:20;;;;;;;15.00;12.10;;;1.60;1.00;;;;;;5074873;28;20204;-71
2024/01/14 08:01:46;;;;;;;20.80;13.90;;;1.40;1.00;;;;;;5077050;28;20193;-69
2024/01/14 08:04:11;;;;;;;15.83;11.57;;;1.40;1.00;;;;;;5073316;28;20178;-71
2024/01/14 08:06:37;;;;;;;19.57;13.77;;;1.40;1.00;;;;;;5092445;28;20214;-71
2024/01/14 08:09:03;;;;;;;15.70;12.13;;;1.50;99.90;;;;;;5092225;28;20547;-72
2024/01/14 08:11:28;;;;;;;16.97;12.93;;;1.40;99.90;;;;;;5092368;28;20723;-71
2024/01/14 08:13:54;;;;;;;20.20;13.50;;;1.40;99.90;;;;;;5092116;28;20667;-71
2024/01/14 08:16:20;;;;;;;21.47;13.57;;;1.40;99.90;;;;;;5092403;28;20185;-71
2024/01/14 08:18:45;;;;;;;23.03;13.00;;;1.60;99.90;;;;;;5073670;28;20641;-71
2024/01/14 08:21:11;;;;;;;21.13;14.50;;;1.50;99.90;;;;;;5071793;28;20178;-72
2024/01/14 08:23:37;;;;;;;17.97;12.07;;;1.40;99.90;;;;;;5072125;28;20225;-71
2024/01/14 08:26:03;;;;;;;18.27;14.00;;;1.50;99.90;;;;;;5071647;28;20216;-71
2024/01/14 08:28:34;;;;;;;19.10;13.30;;;1.60;99.90;;;;;;5071757;28;20217;-71
2024/01/14 08:31:01;;;;;;;18.53;12.47;;;1.50;99.90;;;;;;5082118;28;20201;-71
2024/01/14 08:33:27;;;;;;;15.63;11.07;;;1.40;99.90;;;;;;5092078;28;20637;-71
2024/01/14 08:35:54;;;;;;;21.63;12.60;;;1.60;99.90;;;;;;5088216;28;20190;-71
2024/01/14 08:38:20;;;;;;;13.40;10.73;;;1.60;99.90;;;;;;5071364;28;20195;-70
2024/01/14 08:40:46;;;;;;;21.33;12.40;;;1.60;58.00;;;;;;5053479;28;20178;-72
2024/01/14 08:43:12;;;;;;;13.03;10.17;;;1.70;81.80;;;;;;5071437;28;20166;-71
2024/01/14 08:45:38;;;;;;;16.43;11.10;;;1.60;1.00;;;;;;5082056;28;20567;-71
2024/01/14 08:48:06;;;;;;;12.47;9.53;;;1.50;1.00;;;;;;5091711;28;20188;-71
2024/01/14 08:50:32;;;;;;;19.77;11.90;;;1.60;1.00;;;;;;5091843;28;20173;-72
2024/01/14 08:52:57;;;;;;;20.90;13.17;;;1.60;1.00;;;;;;5092095;28;20697;-72
2024/01/14 08:55:23;;;;;;;17.80;10.67;;;1.80;1.00;;;;;;5092105;28;20186;-72
2024/01/14 08:57:49;;;;;;;17.43;11.87;;;1.70;99.90;;;;;;5083143;28;20265;-72
2024/01/14 09:00:14;;;;;;;17.20;11.87;;;1.60;99.90;;;;;;5071560;28;20189;-71
2024/01/14 09:02:40;;;;;;;16.20;11.90;;;1.80;99.90;;;;;;5072542;28;20327;-71
2024/01/14 09:05:06;;;;;;;19.57;12.87;;;1.70;99.90;;;;;;5071055;28;20288;-71
2024/01/14 09:07:33;;;;;;;14.60;10.40;;;1.80;99.90;;;;;;5071580;28;20174;-71
2024/01/14 09:09:59;;;;;;;18.67;11.50;;;1.80;1.00;;;;;;5070851;28;20183;-71
2024/01/14 09:12:25;;;;;;;14.37;10.30;;;1.70;1.00;;;;;;5084824;28;20700;-71
2024/01/14 09:14:51;;;;;;;16.10;10.27;;;1.80;99.90;;;;;;5091442;28;20166;-72
2024/01/14 09:17:17;;;;;;;16.67;11.50;;;1.70;99.90;;;;;;5091678;28;20684;-70
2024/01/14 09:19:43;;;;;;;18.00;12.20;;;1.80;1.00;;;;;;5094836;28;20248;-71
2024/01/14 09:22:09;;;;;;;12.10;9.80;;;1.60;1.00;;;;;;5099287;28;20671;-71
2024/01/14 09:24:35;;;;;;;8.87;8.00;;;1.60;47.30;;;;;;5094040;28;20178;-71
2024/01/14 09:27:01;;;;;;;18.83;11.07;;;1.50;1.00;;;;;;5059490;28;20214;-71
2024/01/14 09:29:26;;;;;;;16.20;11.50;;;1.80;1.00;;;;;;5082840;28;20185;-72
2024/01/14 09:31:52;;;;;;;15.10;11.33;;;1.70;1.00;;;;;;5077708;28;20193;-71
2024/01/14 09:34:17;;;;;;;13.50;10.17;;;1.60;99.90;;;;;;5077745;28;20249;-71
2024/01/14 09:36:43;;;;;;;13.40;10.93;;;1.50;1.00;;;;;;5092630;28;20612;-71
2024/01/14 09:39:12;;;;;;;14.70;11.23;;;1.50;1.00;;;;;;5097713;28;20571;-71
2024/01/14 09:41:54;;;;;;;14.20;10.67;;;1.40;99.90;;;;;;5098105;28;20666;-71
2024/01/14 09:44:20;;;;;;;18.70;11.07;;;1.30;1.00;;;;;;5097517;28;20169;-71
2024/01/14 09:46:47;;;;;;;16.40;10.57;;;1.20;1.00;;;;;;5096026;28;20307;-71
2024/01/14 09:49:15;;;;;;;14.63;10.10;;;1.10;1.00;;;;;;5097547;28;20180;-71
2024/01/14 09:51:41;;;;;;;15.83;10.53;;;1.10;1.00;;;;;;5095963;28;20248;-71
2024/01/14 09:54:07;;;;;;;17.70;12.13;;;1.20;26.80;;;;;;5097402;28;20166;-71
2024/01/14 09:56:34;;;;;;;15.67;10.83;;;1.30;55.30;;;;;;5095456;28;20234;-71
2024/01/14 09:59:01;;;;;;;14.67;10.07;;;1.40;63.70;;;;;;5077109;28;20170;-72
2024/01/14 10:01:31;;;;;;;18.93;11.23;;;1.30;24.40;;;;;;5077753;28;20200;-72
2024/01/14 10:04:01;;;;;;;16.33;12.00;;;1.20;10.40;;;;;;5077315;28;20653;-72
2024/01/14 10:06:28;;;;;;;15.53;11.10;;;1.40;19.40;;;;;;5077856;28;20190;-72
2024/01/14 10:08:54;;;;;;;15.23;12.37;;;1.40;24.90;;;;;;5076973;28;20668;-72
2024/01/14 10:11:20;;;;;;;16.23;12.20;;;1.70;33.40;;;;;;5078905;28;20692;-72
2024/01/14 10:13:46;;;;;;;18.20;12.03;;;1.60;35.00;;;;;;5097523;28;20169;-72
2024/01/14 10:16:12;;;;;;;15.63;11.17;;;1.60;30.90;;;;;;5097394;28;20246;-71
2024/01/14 10:18:38;;;;;;;15.13;11.53;;;1.70;17.50;;;;;;5078948;28;20264;-71
2024/01/14 10:21:04;;;;;;;15.70;11.50;;;1.60;1.00;;;;;;5097172;28;20261;-72
2024/01/14 10:23:31;;;;;;;17.93;11.80;;;1.60;1.00;;;;;;5097349;28;20173;-71
2024/01/14 10:26:01;;;;;;;17.63;12.20;;;1.60;1.00;;;;;;5095470;28;20626;-71
2024/01/14 10:28:37;;;;;;;11.97;10.37;;;1.70;1.00;;;;;;5097253;28;20256;-71
2024/01/14 10:31:04;;;;;;;16.07;11.87;;;1.70;1.00;;;;;;5095558;28;20189;-71
2024/01/14 10:33:34;;;;;;;14.27;10.73;;;1.70;1.00;;;;;;5094042;28;20264;-72
2024/01/14 10:36:00;;;;;;;12.00;10.37;;;1.80;1.00;;;;;;5093650;28;20609;-71
2024/01/14 10:38:26;;;;;;;12.47;9.30;;;1.70;1.00;;;;;;5084271;28;20665;-71
2024/01/14 10:40:52;;;;;;;11.07;9.30;;;1.80;1.00;;;;;;5073840;28;20392;-73
2024/01/14 10:43:18;;;;;;;14.10;11.03;;;1.50;1.00;;;;;;5085485;28;20177;-70
2024/01/14 10:45:49;;;;;;;20.77;13.27;;;1.50;1.00;;;;;;5095440;28;20684;-71
2024/01/14 10:48:18;;;;;;;16.10;11.20;;;1.40;1.00;;;;;;5094355;28;20500;-71
2024/01/14 10:50:46;;;;;;;14.80;11.27;;;1.60;20.50;;;;;;5082678;28;20202;-71
2024/01/14 10:53:30;;;;;;;16.37;11.57;;;1.60;59.60;;;;;;5082102;28;20204;-71
2024/01/14 10:56:03;;;;;;;16.23;10.90;;;1.60;53.80;;;;;;5093730;28;20598;-71
2024/01/14 10:58:36;;;;;;;11.87;9.53;;;1.70;48.30;;;;;;5093430;28;20227;-70
2024/01/14 11:01:07;;;;;;;14.03;10.20;;;1.70;1.00;;;;;;5093813;28;20195;-71
2024/01/14 11:03:33;;;;;;;12.80;9.73;;;1.60;1.00;;;;;;5093847;28;20173;-72
2024/01/14 11:05:59;;;;;;;12.47;9.83;;;1.60;1.00;;;;;;5093170;28;20196;-71
2024/01/14 11:08:25;;;;;;;11.93;10.20;;;1.60;1.00;;;;;;5080302;28;20185;-71
2024/01/14 11:10:53;;;;;;;12.30;9.73;;;1.60;1.00;;;;;;5073537;28;20657;-71
2024/01/14 11:13:33;;;;;;;10.97;8.90;;;1.50;1.00;;;;;;5073324;28;20167;-71
2024/01/14 11:16:21;;;;;;;11.93;9.83;;;1.50;1.00;;;;;;5092590;28;20190;-71
2024/01/14 11:18:59;;;;;;;12.77;10.07;;;1.50;1.00;;;;;;5093211;28;20185;-71
2024/01/14 11:22:00;;;;;;;14.03;10.17;;;1.50;1.00;;;;;;5081194;28;20522;-71
2024/01/14 11:24:26;;;;;;;13.97;10.93;;;1.70;99.90;;;;;;5073060;28;20166;-71
2024/01/14 11:26:54;;;;;;;11.93;9.77;;;1.70;99.90;;;;;;5075547;28;20581;-73
2024/01/14 11:29:36;;;;;;;13.87;9.97;;;1.80;99.90;;;;;;5073738;28;20162;-72
2024/01/14 11:32:08;;;;;;;15.20;9.87;;;1.80;99.90;;;;;;5074133;28;20213;-72
2024/01/14 11:34:52;;;;;;;12.03;9.03;;;1.80;1.00;;;;;;5074904;28;20223;-71
2024/01/14 11:37:30;;;;;;;12.43;8.90;;;2.00;99.90;;;;;;5076442;28;20229;-72
2024/01/14 11:40:24;;;;;;;11.60;9.63;;;1.90;99.90;;;;;;5056230;28;20174;-72
2024/01/14 11:43:10;;;;;;;10.73;8.73;;;1.80;99.90;;;;;;5073712;28;20622;-71
2024/01/14 11:45:37;;;;;;;14.43;9.03;;;1.90;1.00;;;;;;5073532;28;20193;-71
2024/01/14 11:48:04;;;;;;;10.27;9.27;;;1.60;1.00;;;;;;5074729;28;20675;-72
2024/01/14 11:50:31;;;;;;;12.07;9.30;;;1.60;99.90;;;;;;5093492;28;20170;-71
2024/01/14 11:52:58;;;;;;;11.17;8.67;;;1.60;1.00;;;;;;5093741;28;20170;-72
2024/01/14 11:55:29;;;;;;;12.13;9.13;;;1.50;1.00;;;;;;5087796;28;20693;-71
2024/01/14 11:57:55;;;;;;;16.13;10.40;;;1.60;99.90;;;;;;5074534;28;20502;-72
2024/01/14 12:00:25;;;;;;;12.07;9.67;;;1.60;99.90;;;;;;5073699;28;20345;-72
2024/01/14 12:03:07;;;;;;;13.23;9.53;;;1.60;6.30;;;;;;5075212;28;20174;-72
2024/01/14 12:05:32;;;;;;;11.33;9.73;;;1.70;1.00;;;;;;5072905;28;20277;-71
2024/01/14 12:08:00;;;;;;;13.73;9.67;;;1.60;1.00;;;;;;5073489;28;20201;-71
2024/01/14 12:10:28;;;;;;;16.17;9.67;;;1.90;99.90;;;;;;5074106;28;20196;-71
2024/01/14 12:12:55;;;;;;;14.00;10.03;;;2.00;1.00;;;;;;5071988;28;20202;-71
2024/01/14 12:15:21;;;;;;;13.23;9.13;;;2.00;1.00;;;;;;5071595;28;20232;-71
2024/01/14 12:18:00;;;;;;;14.67;10.17;;;2.20;1.00;;;;;;5088487;28;20178;-71
2024/01/14 12:20:26;;;;;;;11.47;9.20;;;2.20;1.00;;;;;;5091972;28;20170;-72
2024/01/14 12:23:11;;;;;;;15.13;9.67;;;2.10;99.90;;;;;;5092049;28;20170;-71
2024/01/14 12:25:39;;;;;;;12.57;9.73;;;2.40;99.90;;;;;;5091858;28;20197;-71
2024/01/14 12:28:04;;;;;;;13.57;9.30;;;2.40;1.00;;;;;;5091549;28;20235;-71
2024/01/14 12:30:34;;;;;;;13.83;9.90;;;2.50;1.00;;;;;;5090078;28;20667;-71
2024/01/14 12:33:12;;;;;;;10.50;8.87;;;2.40;1.00;;;;;;5091774;28;20173;-70
2024/01/14 12:35:38;;;;;;;13.13;9.57;;;2.50;99.90;;;;;;5091932;28;20692;-71
2024/01/14 12:38:06;;;;;;;9.77;8.77;;;2.40;94.10;;;;;;5091765;28;20466;-71